createdAt,value
2023-03-29T06:52:07.250Z,54.46
2023-03-29T06:53:07.170Z,53.33
2023-03-29T06:54:07.063Z,56.88
2023-03-29T06:55:08.268Z,54.46
2023-03-29T06:56:08.483Z,54.95
2023-03-29T06:57:08.353Z,55.43
2023-03-29T06:58:08.279Z,54.46
2023-03-29T06:59:08.251Z,52.85
2023-03-29T07:00:08.286Z,53.50
2023-03-29T07:01:08.202Z,52.85
2023-03-29T07:02:08.746Z,53.17
2023-03-29T07:03:08.355Z,52.21
2023-03-29T07:04:08.441Z,53.17
2023-03-29T07:05:08.304Z,51.40
2023-03-29T07:06:08.337Z,53.01
2023-03-29T07:07:08.397Z,53.98
2023-03-29T07:08:08.490Z,55.75
2023-03-29T07:09:08.299Z,55.11
2023-03-29T07:10:08.257Z,56.56
2023-03-29T07:11:08.259Z,57.04
2023-03-29T07:12:09.445Z,53.66
2023-03-29T07:13:08.288Z,54.95
2023-03-29T07:14:08.139Z,54.62
2023-03-29T07:15:08.161Z,53.33
2023-03-29T07:16:08.128Z,53.50
2023-03-29T07:17:08.283Z,51.56
2023-03-29T07:18:08.286Z,52.53
2023-03-29T07:19:08.233Z,53.98
2023-03-29T07:20:08.224Z,53.98
2023-03-29T07:21:08.366Z,54.95
2023-03-29T07:22:08.199Z,56.40
2023-03-29T07:23:08.279Z,53.33
2023-03-29T07:24:08.176Z,55.43
2023-03-29T07:25:08.207Z,58.65
2023-03-29T07:26:08.434Z,55.59
2023-03-29T07:27:08.175Z,54.30
2023-03-29T07:28:08.167Z,53.66
2023-03-29T07:29:08.327Z,54.95
2023-03-29T07:30:08.138Z,52.05
2023-03-29T07:31:08.389Z,52.85
2023-03-29T07:32:08.069Z,53.66
2023-03-29T07:33:08.129Z,54.95
2023-03-29T07:34:08.107Z,53.82
2023-03-29T07:35:07.993Z,54.79
2023-03-29T07:36:08.093Z,54.79
2023-03-29T07:37:07.945Z,57.04
2023-03-29T07:38:07.989Z,54.14
2023-03-29T07:39:07.993Z,56.88
2023-03-29T07:40:08.113Z,53.50
2023-03-29T07:41:08.243Z,53.50
2023-03-29T07:42:08.042Z,54.14
2023-03-29T07:43:08.391Z,53.01
2023-03-29T07:44:08.061Z,53.82
2023-03-29T07:45:09.165Z,54.95
2023-03-29T07:46:08.215Z,52.53
2023-03-29T07:47:07.978Z,52.05
2023-03-29T07:48:08.050Z,55.43
2023-03-29T07:49:08.035Z,50.76
2023-03-29T07:50:08.200Z,52.05
2023-03-29T07:51:07.978Z,54.14
2023-03-29T07:52:07.980Z,52.53
2023-03-29T07:53:07.877Z,50.92
2023-03-29T07:54:07.879Z,52.53
2023-03-29T07:55:07.942Z,50.92
2023-03-29T07:56:08.111Z,52.21
2023-03-29T07:57:07.901Z,55.27
2023-03-29T07:58:07.817Z,54.30
2023-03-29T07:59:07.973Z,53.50
2023-03-29T08:00:07.928Z,53.66
2023-03-29T08:01:08.071Z,50.76
2023-03-29T08:02:07.914Z,52.53
2023-03-29T08:03:07.935Z,54.95
2023-03-29T08:04:08.091Z,54.62
2023-03-29T08:05:07.977Z,53.98
2023-03-29T08:06:07.863Z,55.11
2023-03-29T08:07:07.923Z,53.50
2023-03-29T08:08:07.970Z,53.98
2023-03-29T08:09:08.040Z,52.21
2023-03-29T08:10:08.120Z,53.33
2023-03-29T08:11:07.918Z,51.72
2023-03-29T08:12:07.923Z,56.07
2023-03-29T08:13:07.915Z,53.50
2023-03-29T08:14:07.785Z,52.69
2023-03-29T08:15:07.765Z,53.01
2023-03-29T08:16:08.737Z,53.50
2023-03-29T08:17:07.759Z,53.33
2023-03-29T08:18:07.937Z,54.14
2023-03-29T08:19:07.672Z,54.14
2023-03-29T08:20:07.789Z,54.30
2023-03-29T08:21:07.747Z,53.50
2023-03-29T08:22:08.094Z,53.50
2023-03-29T08:23:07.837Z,54.79
2023-03-29T08:24:07.732Z,52.05
2023-03-29T08:25:07.709Z,52.21
2023-03-29T08:26:07.755Z,52.85
2023-03-29T08:27:07.667Z,54.14
2023-03-29T08:28:07.744Z,54.30
2023-03-29T08:29:07.862Z,58.65
2023-03-29T08:30:07.758Z,57.36
2023-03-29T08:31:08.495Z,54.46
2023-03-29T08:32:07.575Z,53.50
2023-03-29T08:33:07.632Z,54.30
2023-03-29T08:34:07.593Z,53.98
2023-03-29T08:35:07.571Z,54.62
2023-03-29T08:36:07.787Z,54.30
2023-03-29T08:37:07.571Z,52.37
2023-03-29T08:38:07.534Z,54.79
2023-03-29T08:39:07.560Z,54.79
2023-03-29T08:40:07.539Z,53.50
2023-03-29T08:41:07.603Z,52.05
2023-03-29T08:42:07.677Z,50.60
2023-03-29T08:43:07.632Z,51.24
2023-03-29T08:44:07.645Z,54.46
2023-03-29T08:45:07.638Z,54.30
2023-03-29T08:46:07.627Z,53.82
2023-03-29T08:47:07.525Z,55.11
2023-03-29T08:48:07.985Z,53.17
2023-03-29T08:49:07.566Z,53.98
2023-03-29T08:50:07.580Z,54.95
2023-03-29T08:51:09.460Z,53.33
2023-03-29T08:52:08.651Z,52.69
2023-03-29T08:53:07.599Z,52.69
2023-03-29T08:54:07.495Z,55.43
2023-03-29T08:55:07.445Z,56.24
2023-03-29T08:56:07.827Z,56.72
2023-03-29T08:57:07.645Z,57.04
2023-03-29T08:58:07.433Z,53.98
2023-03-29T08:59:07.428Z,52.21
2023-03-29T09:00:07.404Z,55.75
2023-03-29T09:01:07.557Z,56.88
2023-03-29T09:02:07.804Z,60.10
2023-03-29T09:03:07.456Z,56.88
2023-03-29T09:10:48.120Z,55.59
2023-03-29T09:11:47.994Z,56.56
2023-03-29T09:12:48.026Z,56.72
2023-03-29T09:13:48.182Z,53.33
2023-03-29T09:14:48.046Z,55.27
2023-03-29T09:15:48.182Z,57.04
2023-03-29T09:16:48.046Z,55.75
2023-03-29T09:17:49.609Z,56.07
2023-03-29T09:18:49.078Z,54.95
2023-03-29T09:19:49.145Z,57.69
2023-03-29T09:20:48.014Z,58.65
2023-03-29T09:21:48.029Z,55.11
2023-03-29T09:22:48.010Z,55.11
2023-03-29T09:23:48.402Z,57.69
2023-03-29T09:24:48.142Z,60.10
2023-03-29T09:25:53.363Z,58.81
2023-03-29T09:26:49.973Z,60.26
2023-03-29T09:27:47.864Z,59.46
2023-03-29T09:28:47.916Z,59.30
2023-03-29T09:29:47.890Z,59.30
2023-03-29T09:30:47.932Z,57.52
2023-03-29T09:31:47.993Z,54.62
2023-03-29T09:32:47.950Z,55.11
2023-03-29T09:33:47.820Z,55.27
2023-03-29T09:34:47.858Z,53.01
2023-03-29T09:35:47.944Z,54.62
2023-03-29T09:36:48.088Z,56.56
2023-03-29T09:37:47.916Z,57.69
2023-03-29T09:38:48.049Z,54.95
2023-03-29T09:39:48.216Z,54.30
2023-03-29T09:40:47.906Z,55.43
2023-03-29T09:41:47.968Z,52.53
2023-03-29T09:42:47.909Z,50.27
2023-03-29T09:43:48.037Z,52.69
2023-03-29T09:44:48.199Z,52.53
2023-03-29T09:45:47.971Z,51.88
2023-03-29T09:46:47.739Z,53.50
2023-03-29T09:47:47.867Z,53.17
2023-03-29T09:48:47.718Z,53.17
2023-03-29T09:49:47.844Z,54.14
2023-03-29T09:50:47.835Z,53.98
2023-03-29T09:51:48.088Z,55.11
2023-03-29T09:52:47.890Z,52.21
2023-03-29T09:53:47.947Z,53.98
2023-03-29T09:54:47.794Z,54.46
2023-03-29T09:55:49.093Z,54.14
2023-03-29T09:56:49.089Z,55.91
2023-03-29T09:57:47.792Z,57.04
2023-03-29T09:58:48.134Z,52.21
2023-03-29T09:59:47.804Z,51.08
2023-03-29T10:00:47.754Z,49.95
2023-03-29T10:01:47.792Z,52.53
2023-03-29T10:02:47.956Z,49.79
2023-03-29T10:03:47.702Z,50.92
2023-03-29T10:04:47.728Z,50.43
2023-03-29T10:05:47.611Z,52.05
2023-03-29T10:06:47.652Z,50.43
2023-03-29T10:07:47.616Z,50.92
2023-03-29T10:08:47.612Z,50.92
2023-03-29T10:09:47.783Z,50.43
2023-03-29T10:10:47.715Z,50.76
2023-03-29T10:11:47.698Z,51.56
2023-03-29T10:12:48.004Z,52.85
2023-03-29T10:13:47.619Z,52.21
2023-03-29T10:14:47.861Z,52.21
2023-03-29T10:15:47.651Z,52.05
2023-03-29T10:16:48.000Z,51.24
2023-03-29T10:17:47.633Z,51.40
2023-03-29T10:18:47.799Z,50.76
2023-03-29T10:19:47.620Z,51.72
2023-03-29T10:20:47.651Z,53.98
2023-03-29T10:21:47.533Z,53.17
2023-03-29T10:22:47.504Z,52.21
2023-03-29T10:23:47.618Z,52.05
2023-03-29T10:24:47.464Z,51.40
2023-03-29T10:25:47.542Z,51.56
2023-03-29T10:26:47.539Z,51.72
2023-03-29T10:27:47.544Z,52.53
2023-03-29T10:28:47.584Z,51.40
2023-03-29T10:29:47.626Z,51.56
2023-03-29T10:30:47.563Z,53.01
2023-03-29T10:31:47.670Z,53.01
2023-03-29T10:32:47.572Z,52.69
2023-03-29T10:33:47.624Z,51.40
2023-03-29T10:34:47.560Z,53.17
2023-03-29T10:35:47.620Z,53.98
2023-03-29T10:36:47.851Z,52.05
2023-03-29T10:37:47.629Z,52.69
2023-03-29T10:38:47.617Z,53.66
2023-03-29T10:39:47.449Z,52.53
2023-03-29T10:40:47.547Z,50.92
2023-03-29T10:41:48.596Z,51.40
2023-03-29T10:42:47.389Z,52.05
2023-03-29T10:43:47.505Z,50.92
2023-03-29T10:44:47.417Z,50.92
2023-03-29T10:45:47.616Z,53.01
2023-03-29T10:46:47.497Z,51.40
2023-03-29T10:47:47.486Z,53.17
2023-03-29T10:48:47.722Z,51.72
2023-03-29T10:49:47.946Z,52.69
2023-03-29T10:50:47.436Z,51.88
2023-03-29T10:51:47.413Z,51.72
2023-03-29T10:52:47.570Z,52.37
2023-03-29T10:53:47.305Z,50.60
2023-03-29T10:54:47.310Z,49.79
2023-03-29T10:55:47.590Z,50.27
2023-03-29T10:56:47.392Z,51.24
2023-03-29T10:57:47.306Z,50.92
2023-03-29T10:58:47.745Z,51.40
2023-03-29T10:59:47.379Z,50.60
2023-03-29T11:00:47.390Z,52.53
2023-03-29T11:01:47.752Z,51.24
2023-03-29T11:02:47.468Z,50.92
2023-03-29T11:03:47.570Z,52.05
2023-03-29T11:04:47.304Z,51.24
2023-03-29T11:05:47.340Z,52.05
2023-03-29T11:06:47.410Z,52.05
2023-03-29T11:07:47.427Z,50.43
2023-03-29T11:08:47.328Z,50.60
2023-03-29T11:09:47.686Z,51.08
2023-03-29T11:10:47.346Z,51.08
2023-03-29T11:11:47.202Z,50.11
2023-03-29T11:12:47.146Z,50.92
2023-03-29T11:13:47.142Z,52.21
2023-03-29T11:14:47.354Z,53.98
2023-03-29T11:15:47.582Z,50.27
2023-03-29T11:16:47.692Z,53.17
2023-03-29T11:17:47.445Z,54.14
2023-03-29T11:18:47.356Z,53.33
2023-03-29T11:19:47.979Z,51.72
2023-03-29T11:20:47.633Z,54.46
2023-03-29T11:21:47.538Z,53.33
2023-03-29T11:22:47.222Z,54.79
2023-03-29T11:23:47.391Z,53.82
2023-03-29T11:24:47.133Z,53.66
2023-03-29T11:25:47.138Z,54.30
2023-03-29T11:26:47.087Z,56.56
2023-03-29T11:27:47.129Z,54.46
2023-03-29T11:28:47.045Z,54.62
2023-03-29T11:29:47.050Z,53.33
2023-03-29T11:30:47.196Z,54.30
2023-03-29T11:31:47.277Z,53.17
2023-03-29T11:32:47.295Z,54.30
2023-03-29T11:33:47.271Z,52.69
2023-03-29T11:34:47.148Z,53.33
2023-03-29T11:35:47.226Z,53.82
2023-03-29T11:36:47.140Z,51.72
2023-03-29T11:37:47.277Z,53.82
2023-03-29T11:38:47.124Z,54.46
2023-03-29T11:39:47.454Z,55.43
2023-03-29T11:40:47.255Z,52.85
2023-03-29T11:41:47.526Z,53.66
2023-03-29T11:42:47.173Z,52.53
2023-03-29T11:43:46.984Z,54.79
2023-03-29T11:44:47.032Z,53.66
2023-03-29T11:45:47.285Z,52.21
2023-03-29T11:46:47.067Z,51.40
2023-03-29T11:47:47.055Z,53.01
2023-03-29T11:48:46.920Z,52.69
2023-03-29T11:49:46.920Z,53.17
2023-03-29T11:50:46.959Z,50.76
2023-03-29T11:51:46.981Z,50.92
2023-03-29T11:52:47.029Z,54.95
2023-03-29T11:53:46.991Z,53.50
2023-03-29T11:54:46.914Z,52.37
2023-03-29T11:55:46.943Z,52.05
2023-03-29T11:56:47.318Z,52.05
2023-03-29T11:57:47.026Z,53.33
2023-03-29T11:58:46.897Z,51.08
2023-03-29T11:59:46.990Z,51.40
2023-03-29T12:00:46.957Z,52.85
2023-03-29T12:01:47.037Z,55.27
2023-03-29T12:02:47.090Z,55.27
2023-03-29T12:03:47.505Z,54.30
2023-03-29T12:04:46.827Z,52.85
2023-03-29T12:05:46.733Z,51.56
2023-03-29T12:06:46.903Z,52.05
2023-03-29T12:07:46.825Z,52.37
2023-03-29T12:08:47.241Z,53.01
2023-03-29T12:09:47.001Z,53.33
2023-03-29T12:10:46.805Z,52.05
2023-03-29T12:11:47.327Z,52.69
2023-03-29T12:12:46.849Z,54.62
2023-03-29T12:13:46.905Z,53.98
2023-03-29T12:14:46.881Z,52.69
2023-03-29T12:15:46.791Z,53.01
2023-03-29T12:16:46.969Z,55.43
2023-03-29T12:17:46.899Z,54.46
2023-03-29T12:18:46.713Z,54.46
2023-03-29T12:19:46.804Z,52.85
2023-03-29T12:20:46.850Z,53.82
2023-03-29T12:21:46.677Z,53.01
2023-03-29T12:22:46.690Z,53.66
2023-03-29T12:23:46.634Z,54.95
2023-03-29T12:24:46.799Z,53.82
2023-03-29T12:25:46.725Z,53.98
2023-03-29T12:26:46.880Z,53.98
2023-03-29T12:27:46.737Z,52.69
2023-03-29T12:28:46.830Z,53.66
2023-03-29T12:29:46.770Z,53.66
2023-03-29T12:30:47.025Z,52.69
2023-03-29T12:31:46.758Z,53.50
2023-03-29T12:32:46.863Z,53.98
2023-03-29T12:33:47.013Z,51.72
2023-03-29T12:34:46.944Z,54.62
2023-03-29T12:35:46.784Z,53.33
2023-03-29T12:36:46.581Z,53.50
2023-03-29T12:37:46.588Z,51.88
2023-03-29T12:38:46.985Z,55.59
2023-03-29T12:39:46.850Z,56.07
2023-03-29T12:40:46.730Z,54.30
2023-03-29T12:41:46.709Z,55.91
2023-03-29T12:42:46.767Z,55.75
2023-03-29T12:43:46.649Z,55.43
2023-03-29T12:44:46.610Z,57.52
2023-03-29T12:45:47.987Z,57.36
2023-03-29T12:46:47.419Z,58.01
2023-03-29T12:47:46.840Z,57.04
2023-03-29T12:48:46.657Z,58.65
2023-03-29T12:49:46.629Z,56.40
2023-03-29T12:50:47.074Z,57.36
2023-03-29T12:51:46.480Z,56.88
2023-03-29T12:52:46.510Z,57.52
2023-03-29T12:53:46.707Z,57.36
2023-03-29T12:54:46.455Z,53.33
2023-03-29T12:55:46.470Z,57.04
2023-03-29T12:56:46.776Z,56.40
2023-03-29T12:57:46.498Z,56.07
2023-03-29T12:58:46.784Z,57.04
2023-03-29T12:59:46.514Z,54.95
2023-03-29T13:00:47.131Z,55.43
2023-03-29T13:01:47.389Z,55.91
2023-03-29T13:02:46.435Z,54.95
2023-03-29T13:03:47.879Z,55.11
2023-03-29T13:04:46.699Z,55.91
2023-03-29T13:05:46.542Z,54.46
2023-03-29T13:06:46.457Z,52.69
2023-03-29T13:07:46.645Z,52.69
2023-03-29T13:08:46.655Z,56.40
2023-03-29T13:09:46.493Z,58.01
2023-03-29T13:10:46.370Z,56.56
2023-03-29T13:11:46.348Z,53.66
2023-03-29T13:12:47.464Z,54.46
2023-03-29T13:13:46.278Z,54.79
2023-03-29T13:14:46.512Z,54.79
2023-03-29T13:15:46.491Z,54.95
2023-03-29T13:16:46.513Z,55.91
2023-03-29T13:17:46.429Z,55.11
2023-03-29T13:18:46.547Z,54.95
2023-03-29T13:19:46.417Z,55.11
2023-03-29T13:20:46.421Z,55.43
2023-03-29T13:21:46.518Z,54.46
2023-03-29T13:22:46.374Z,55.27
2023-03-29T13:23:46.266Z,55.91
2023-03-29T13:24:46.248Z,53.33
2023-03-29T13:25:46.748Z,55.27
2023-03-29T13:26:46.308Z,54.62
2023-03-29T13:27:46.239Z,53.98
2023-03-29T13:28:46.226Z,53.50
2023-03-29T13:29:46.207Z,55.11
2023-03-29T13:30:46.587Z,54.14
2023-03-29T13:31:46.319Z,51.40
2023-03-29T13:32:46.629Z,53.01
2023-03-29T13:33:46.423Z,53.98
2023-03-29T13:34:46.243Z,51.72
2023-03-29T13:35:46.297Z,53.01
2023-03-29T13:36:46.299Z,53.50
2023-03-29T13:37:46.315Z,55.75
2023-03-29T13:38:46.285Z,54.62
2023-03-29T13:39:46.608Z,54.46
2023-03-29T13:40:46.208Z,53.98
2023-03-29T13:41:46.553Z,54.62
2023-03-29T13:42:47.228Z,55.43
2023-03-29T13:43:47.253Z,57.36
2023-03-29T13:44:46.139Z,57.69
2023-03-29T13:45:46.187Z,55.43
2023-03-29T13:46:46.317Z,56.56
2023-03-29T13:47:58.333Z,55.59
2023-03-29T13:48:48.092Z,55.75
2023-03-29T13:49:46.140Z,56.07
2023-03-29T13:50:46.131Z,54.79
2023-03-29T13:51:46.158Z,55.43
2023-03-29T13:52:46.475Z,52.69
2023-03-29T13:53:46.185Z,54.46
